sensor_id;sensor_type;location;lat;lon;timestamp;P1;durP1;ratioP1;P2;durP2;ratioP2
36373;SDS011;22399;51.346;12.372;2023-06-26T00:01:29;4.93;;;2.10;;
36373;SDS011;22399;51.346;12.372;2023-06-26T00:03:59;7.88;;;2.88;;
36373;SDS011;22399;51.346;12.372;2023-06-26T00:06:28;6.10;;;2.40;;
36373;SDS011;22399;51.346;12.372;2023-06-26T00:08:57;4.45;;;2.40;;
36373;SDS011;22399;51.346;12.372;2023-06-26T00:11:27;6.15;;;2.33;;
36373;SDS011;22399;51.346;12.372;2023-06-26T00:14:00;4.80;;;1.88;;
36373;SDS011;22399;51.346;12.372;2023-06-26T00:16:28;3.25;;;1.85;;
36373;SDS011;22399;51.346;12.372;2023-06-26T00:18:57;6.53;;;2.65;;
36373;SDS011;22399;51.346;12.372;2023-06-26T00:21:26;7.78;;;2.10;;
36373;SDS011;22399;51.346;12.372;2023-06-26T00:23:55;5.60;;;2.17;;
36373;SDS011;22399;51.346;12.372;2023-06-26T00:26:23;6.10;;;2.65;;
36373;SDS011;22399;51.346;12.372;2023-06-26T00:28:53;8.25;;;2.50;;
36373;SDS011;22399;51.346;12.372;2023-06-26T00:31:21;5.68;;;2.30;;
36373;SDS011;22399;51.346;12.372;2023-06-26T00:33:50;4.60;;;2.40;;
36373;SDS011;22399;51.346;12.372;2023-06-26T00:36:18;7.53;;;2.55;;
36373;SDS011;22399;51.346;12.372;2023-06-26T00:38:49;3.45;;;1.90;;
36373;SDS011;22399;51.346;12.372;2023-06-26T00:41:18;10.45;;;2.63;;
36373;SDS011;22399;51.346;12.372;2023-06-26T00:43:46;5.72;;;2.65;;
36373;SDS011;22399;51.346;12.372;2023-06-26T00:46:16;6.35;;;2.30;;
36373;SDS011;22399;51.346;12.372;2023-06-26T00:48:46;4.95;;;1.98;;
36373;SDS011;22399;51.346;12.372;2023-06-26T00:51:16;3.83;;;2.45;;
36373;SDS011;22399;51.346;12.372;2023-06-26T00:53:45;5.10;;;2.20;;
36373;SDS011;22399;51.346;12.372;2023-06-26T00:56:17;4.65;;;2.42;;
36373;SDS011;22399;51.346;12.372;2023-06-26T00:58:46;4.70;;;2.13;;
36373;SDS011;22399;51.346;12.372;2023-06-26T01:01:15;5.25;;;2.30;;
36373;SDS011;22399;51.346;12.372;2023-06-26T01:03:48;6.70;;;2.70;;
36373;SDS011;22399;51.346;12.372;2023-06-26T01:06:19;6.35;;;2.40;;
36373;SDS011;22399;51.346;12.372;2023-06-26T01:08:50;4.70;;;1.75;;
36373;SDS011;22399;51.346;12.372;2023-06-26T01:11:19;6.45;;;2.78;;
36373;SDS011;22399;51.346;12.372;2023-06-26T01:13:47;5.90;;;2.53;;
36373;SDS011;22399;51.346;12.372;2023-06-26T01:16:19;3.75;;;1.88;;
36373;SDS011;22399;51.346;12.372;2023-06-26T01:18:49;8.20;;;2.33;;
36373;SDS011;22399;51.346;12.372;2023-06-26T01:21:18;5.15;;;2.67;;
36373;SDS011;22399;51.346;12.372;2023-06-26T01:23:57;9.93;;;2.53;;
36373;SDS011;22399;51.346;12.372;2023-06-26T01:26:32;6.20;;;2.17;;
36373;SDS011;22399;51.346;12.372;2023-06-26T01:29:03;7.25;;;3.03;;
36373;SDS011;22399;51.346;12.372;2023-06-26T01:31:34;6.75;;;2.63;;
36373;SDS011;22399;51.346;12.372;2023-06-26T01:34:04;7.40;;;2.65;;
36373;SDS011;22399;51.346;12.372;2023-06-26T01:36:34;5.38;;;2.15;;
36373;SDS011;22399;51.346;12.372;2023-06-26T01:39:04;17.27;;;3.13;;
36373;SDS011;22399;51.346;12.372;2023-06-26T01:41:36;10.35;;;2.70;;
36373;SDS011;22399;51.346;12.372;2023-06-26T01:44:10;6.47;;;2.75;;
36373;SDS011;22399;51.346;12.372;2023-06-26T01:46:47;6.38;;;2.75;;
36373;SDS011;22399;51.346;12.372;2023-06-26T01:49:24;7.80;;;2.80;;
36373;SDS011;22399;51.346;12.372;2023-06-26T01:52:00;5.93;;;2.88;;
36373;SDS011;22399;51.346;12.372;2023-06-26T01:54:36;10.98;;;2.90;;
36373;SDS011;22399;51.346;12.372;2023-06-26T01:57:11;4.97;;;2.33;;
36373;SDS011;22399;51.346;12.372;2023-06-26T01:59:40;6.40;;;2.75;;
36373;SDS011;22399;51.346;12.372;2023-06-26T02:02:10;7.50;;;2.75;;
36373;SDS011;22399;51.346;12.372;2023-06-26T02:04:39;6.45;;;2.55;;
36373;SDS011;22399;51.346;12.372;2023-06-26T02:07:08;6.68;;;2.85;;
36373;SDS011;22399;51.346;12.372;2023-06-26T02:09:37;8.20;;;2.40;;
36373;SDS011;22399;51.346;12.372;2023-06-26T02:12:05;9.15;;;2.90;;
36373;SDS011;22399;51.346;12.372;2023-06-26T02:14:35;6.22;;;2.85;;
36373;SDS011;22399;51.346;12.372;2023-06-26T02:17:04;7.18;;;2.47;;
36373;SDS011;22399;51.346;12.372;2023-06-26T02:19:33;5.60;;;2.78;;
36373;SDS011;22399;51.346;12.372;2023-06-26T02:22:01;7.28;;;2.85;;
36373;SDS011;22399;51.346;12.372;2023-06-26T02:24:30;5.00;;;2.40;;
36373;SDS011;22399;51.346;12.372;2023-06-26T02:26:59;14.55;;;2.97;;
36373;SDS011;22399;51.346;12.372;2023-06-26T02:29:27;9.65;;;2.65;;
36373;SDS011;22399;51.346;12.372;2023-06-26T02:31:57;6.85;;;2.83;;
36373;SDS011;22399;51.346;12.372;2023-06-26T02:34:25;5.45;;;2.50;;
36373;SDS011;22399;51.346;12.372;2023-06-26T02:36:54;5.70;;;2.60;;
36373;SDS011;22399;51.346;12.372;2023-06-26T02:39:23;5.60;;;2.88;;
36373;SDS011;22399;51.346;12.372;2023-06-26T02:41:51;3.90;;;2.30;;
36373;SDS011;22399;51.346;12.372;2023-06-26T02:44:21;10.73;;;2.78;;
36373;SDS011;22399;51.346;12.372;2023-06-26T02:46:50;10.25;;;2.70;;
36373;SDS011;22399;51.346;12.372;2023-06-26T02:49:20;6.15;;;2.97;;
36373;SDS011;22399;51.346;12.372;2023-06-26T02:51:49;13.80;;;3.42;;
36373;SDS011;22399;51.346;12.372;2023-06-26T02:54:26;5.82;;;2.50;;
36373;SDS011;22399;51.346;12.372;2023-06-26T02:57:01;3.75;;;2.38;;
36373;SDS011;22399;51.346;12.372;2023-06-26T02:59:30;4.22;;;2.50;;
36373;SDS011;22399;51.346;12.372;2023-06-26T03:02:00;6.60;;;3.25;;
36373;SDS011;22399;51.346;12.372;2023-06-26T03:04:35;9.45;;;2.65;;
36373;SDS011;22399;51.346;12.372;2023-06-26T03:07:07;7.45;;;3.35;;
36373;SDS011;22399;51.346;12.372;2023-06-26T03:09:38;7.22;;;2.92;;
36373;SDS011;22399;51.346;12.372;2023-06-26T03:12:07;5.68;;;2.70;;
36373;SDS011;22399;51.346;12.372;2023-06-26T03:14:37;13.77;;;3.40;;
36373;SDS011;22399;51.346;12.372;2023-06-26T03:17:05;6.90;;;3.30;;
36373;SDS011;22399;51.346;12.372;2023-06-26T03:19:37;6.63;;;3.17;;
36373;SDS011;22399;51.346;12.372;2023-06-26T03:22:20;7.88;;;2.53;;
36373;SDS011;22399;51.346;12.372;2023-06-26T03:24:49;11.57;;;3.70;;
36373;SDS011;22399;51.346;12.372;2023-06-26T03:27:18;5.80;;;2.55;;
36373;SDS011;22399;51.346;12.372;2023-06-26T03:29:48;6.60;;;3.10;;
36373;SDS011;22399;51.346;12.372;2023-06-26T03:32:19;5.68;;;2.88;;
36373;SDS011;22399;51.346;12.372;2023-06-26T03:34:49;6.05;;;2.97;;
36373;SDS011;22399;51.346;12.372;2023-06-26T03:37:20;5.78;;;2.60;;
36373;SDS011;22399;51.346;12.372;2023-06-26T03:39:49;8.65;;;3.15;;
36373;SDS011;22399;51.346;12.372;2023-06-26T03:42:17;11.48;;;3.08;;
36373;SDS011;22399;51.346;12.372;2023-06-26T03:44:46;14.55;;;3.00;;
36373;SDS011;22399;51.346;12.372;2023-06-26T03:47:17;7.35;;;3.33;;
36373;SDS011;22399;51.346;12.372;2023-06-26T03:49:45;8.52;;;3.10;;
36373;SDS011;22399;51.346;12.372;2023-06-26T03:52:15;5.60;;;2.90;;
36373;SDS011;22399;51.346;12.372;2023-06-26T03:54:44;7.70;;;3.45;;
36373;SDS011;22399;51.346;12.372;2023-06-26T03:57:15;8.27;;;3.60;;
36373;SDS011;22399;51.346;12.372;2023-06-26T03:59:46;5.75;;;2.92;;
36373;SDS011;22399;51.346;12.372;2023-06-26T04:02:14;5.55;;;2.40;;
36373;SDS011;22399;51.346;12.372;2023-06-26T04:04:43;4.18;;;2.60;;
36373;SDS011;22399;51.346;12.372;2023-06-26T04:07:11;6.25;;;2.97;;
36373;SDS011;22399;51.346;12.372;2023-06-26T04:09:42;11.88;;;3.10;;
36373;SDS011;22399;51.346;12.372;2023-06-26T04:12:11;6.15;;;2.78;;
36373;SDS011;22399;51.346;12.372;2023-06-26T04:14:39;7.85;;;3.20;;
36373;SDS011;22399;51.346;12.372;2023-06-26T04:17:10;13.07;;;3.33;;
36373;SDS011;22399;51.346;12.372;2023-06-26T04:19:38;5.97;;;2.78;;
36373;SDS011;22399;51.346;12.372;2023-06-26T04:22:07;7.10;;;2.60;;
36373;SDS011;22399;51.346;12.372;2023-06-26T04:24:35;4.03;;;2.35;;
36373;SDS011;22399;51.346;12.372;2023-06-26T04:27:05;6.72;;;3.35;;
36373;SDS011;22399;51.346;12.372;2023-06-26T04:29:34;8.18;;;3.10;;
36373;SDS011;22399;51.346;12.372;2023-06-26T04:32:03;6.85;;;3.25;;
36373;SDS011;22399;51.346;12.372;2023-06-26T04:34:33;9.68;;;3.53;;
36373;SDS011;22399;51.346;12.372;2023-06-26T04:37:02;8.93;;;3.00;;
36373;SDS011;22399;51.346;12.372;2023-06-26T04:39:32;7.13;;;2.90;;
36373;SDS011;22399;51.346;12.372;2023-06-26T04:42:00;4.38;;;2.70;;
36373;SDS011;22399;51.346;12.372;2023-06-26T04:44:30;7.63;;;2.60;;
36373;SDS011;22399;51.346;12.372;2023-06-26T04:46:58;8.63;;;3.05;;
36373;SDS011;22399;51.346;12.372;2023-06-26T04:49:26;7.70;;;2.80;;
36373;SDS011;22399;51.346;12.372;2023-06-26T04:51:56;11.43;;;3.05;;
36373;SDS011;22399;51.346;12.372;2023-06-26T04:54:27;9.52;;;2.60;;
36373;SDS011;22399;51.346;12.372;2023-06-26T04:56:55;6.18;;;3.17;;
36373;SDS011;22399;51.346;12.372;2023-06-26T04:59:24;5.93;;;2.40;;
36373;SDS011;22399;51.346;12.372;2023-06-26T05:01:54;6.88;;;2.80;;
36373;SDS011;22399;51.346;12.372;2023-06-26T05:04:22;6.22;;;2.53;;
36373;SDS011;22399;51.346;12.372;2023-06-26T05:06:51;10.32;;;3.05;;
36373;SDS011;22399;51.346;12.372;2023-06-26T05:09:20;5.95;;;2.67;;
36373;SDS011;22399;51.346;12.372;2023-06-26T05:11:48;6.95;;;3.05;;
36373;SDS011;22399;51.346;12.372;2023-06-26T05:14:17;6.35;;;2.95;;
36373;SDS011;22399;51.346;12.372;2023-06-26T05:16:45;6.60;;;2.92;;
36373;SDS011;22399;51.346;12.372;2023-06-26T05:19:15;7.63;;;3.35;;
36373;SDS011;22399;51.346;12.372;2023-06-26T05:21:43;5.88;;;2.95;;
36373;SDS011;22399;51.346;12.372;2023-06-26T05:24:12;12.27;;;3.03;;
36373;SDS011;22399;51.346;12.372;2023-06-26T05:26:43;7.82;;;2.83;;
36373;SDS011;22399;51.346;12.372;2023-06-26T05:29:12;7.30;;;3.42;;
36373;SDS011;22399;51.346;12.372;2023-06-26T05:31:41;11.75;;;2.70;;
36373;SDS011;22399;51.346;12.372;2023-06-26T05:34:12;10.88;;;3.10;;
36373;SDS011;22399;51.346;12.372;2023-06-26T05:36:43;8.07;;;2.88;;
36373;SDS011;22399;51.346;12.372;2023-06-26T05:39:12;6.95;;;3.22;;
36373;SDS011;22399;51.346;12.372;2023-06-26T05:41:42;10.20;;;3.00;;
36373;SDS011;22399;51.346;12.372;2023-06-26T05:44:11;11.80;;;3.42;;
36373;SDS011;22399;51.346;12.372;2023-06-26T05:46:40;7.10;;;2.90;;
36373;SDS011;22399;51.346;12.372;2023-06-26T05:49:08;6.40;;;3.35;;
36373;SDS011;22399;51.346;12.372;2023-06-26T05:51:42;4.72;;;2.70;;
36373;SDS011;22399;51.346;12.372;2023-06-26T05:54:11;9.10;;;2.92;;
36373;SDS011;22399;51.346;12.372;2023-06-26T05:56:41;7.78;;;3.05;;
36373;SDS011;22399;51.346;12.372;2023-06-26T05:59:10;12.95;;;2.70;;
36373;SDS011;22399;51.346;12.372;2023-06-26T06:01:40;7.57;;;3.35;;
36373;SDS011;22399;51.346;12.372;2023-06-26T06:04:08;6.15;;;2.97;;
36373;SDS011;22399;51.346;12.372;2023-06-26T06:06:37;5.68;;;2.83;;
36373;SDS011;22399;51.346;12.372;2023-06-26T06:09:06;7.30;;;2.95;;
36373;SDS011;22399;51.346;12.372;2023-06-26T06:11:35;5.70;;;2.67;;
36373;SDS011;22399;51.346;12.372;2023-06-26T06:14:03;6.38;;;3.05;;
36373;SDS011;22399;51.346;12.372;2023-06-26T06:16:32;5.15;;;2.15;;
36373;SDS011;22399;51.346;12.372;2023-06-26T06:19:00;7.18;;;2.90;;
36373;SDS011;22399;51.346;12.372;2023-06-26T06:21:30;5.82;;;3.25;;
36373;SDS011;22399;51.346;12.372;2023-06-26T06:23:58;5.07;;;2.72;;
36373;SDS011;22399;51.346;12.372;2023-06-26T06:26:29;5.75;;;2.95;;
36373;SDS011;22399;51.346;12.372;2023-06-26T06:28:58;4.97;;;2.60;;
36373;SDS011;22399;51.346;12.372;2023-06-26T06:31:26;13.85;;;2.75;;
36373;SDS011;22399;51.346;12.372;2023-06-26T06:33:55;4.68;;;2.40;;
36373;SDS011;22399;51.346;12.372;2023-06-26T06:36:24;6.93;;;3.20;;
36373;SDS011;22399;51.346;12.372;2023-06-26T06:38:52;5.55;;;2.50;;
36373;SDS011;22399;51.346;12.372;2023-06-26T06:41:21;7.65;;;3.20;;
36373;SDS011;22399;51.346;12.372;2023-06-26T06:43:51;7.13;;;3.05;;
36373;SDS011;22399;51.346;12.372;2023-06-26T06:46:20;11.05;;;2.63;;
36373;SDS011;22399;51.346;12.372;2023-06-26T06:48:48;7.22;;;3.00;;
36373;SDS011;22399;51.346;12.372;2023-06-26T06:51:17;9.38;;;2.83;;
36373;SDS011;22399;51.346;12.372;2023-06-26T06:53:45;9.15;;;2.80;;
36373;SDS011;22399;51.346;12.372;2023-06-26T06:56:14;5.55;;;2.63;;
36373;SDS011;22399;51.346;12.372;2023-06-26T06:58:42;6.82;;;3.33;;
36373;SDS011;22399;51.346;12.372;2023-06-26T07:01:14;12.10;;;3.40;;
36373;SDS011;22399;51.346;12.372;2023-06-26T07:03:43;6.38;;;3.03;;
36373;SDS011;22399;51.346;12.372;2023-06-26T07:06:12;10.50;;;3.20;;
36373;SDS011;22399;51.346;12.372;2023-06-26T07:08:40;7.82;;;3.20;;
36373;SDS011;22399;51.346;12.372;2023-06-26T07:11:09;5.55;;;2.63;;
36373;SDS011;22399;51.346;12.372;2023-06-26T07:13:37;9.23;;;2.83;;
36373;SDS011;22399;51.346;12.372;2023-06-26T07:16:06;8.20;;;3.22;;
36373;SDS011;22399;51.346;12.372;2023-06-26T07:18:39;9.77;;;2.85;;
36373;SDS011;22399;51.346;12.372;2023-06-26T07:21:07;11.98;;;2.92;;
36373;SDS011;22399;51.346;12.372;2023-06-26T07:23:36;7.45;;;3.22;;
36373;SDS011;22399;51.346;12.372;2023-06-26T07:26:04;7.78;;;2.40;;
36373;SDS011;22399;51.346;12.372;2023-06-26T07:28:33;10.15;;;2.55;;
36373;SDS011;22399;51.346;12.372;2023-06-26T07:31:01;5.50;;;3.30;;
36373;SDS011;22399;51.346;12.372;2023-06-26T07:33:29;5.38;;;2.67;;
36373;SDS011;22399;51.346;12.372;2023-06-26T07:35:59;5.40;;;2.78;;
36373;SDS011;22399;51.346;12.372;2023-06-26T07:38:27;6.75;;;2.63;;
36373;SDS011;22399;51.346;12.372;2023-06-26T07:40:56;4.63;;;2.53;;
36373;SDS011;22399;51.346;12.372;2023-06-26T07:43:25;4.68;;;2.47;;
36373;SDS011;22399;51.346;12.372;2023-06-26T07:45:54;6.65;;;2.63;;
36373;SDS011;22399;51.346;12.372;2023-06-26T07:48:25;5.45;;;3.08;;
36373;SDS011;22399;51.346;12.372;2023-06-26T07:50:53;4.18;;;2.33;;
36373;SDS011;22399;51.346;12.372;2023-06-26T07:53:23;6.63;;;2.80;;
36373;SDS011;22399;51.346;12.372;2023-06-26T07:55:52;5.50;;;2.95;;
36373;SDS011;22399;51.346;12.372;2023-06-26T07:58:21;6.55;;;3.25;;
36373;SDS011;22399;51.346;12.372;2023-06-26T08:00:49;6.47;;;2.55;;
36373;SDS011;22399;51.346;12.372;2023-06-26T08:03:18;8.75;;;3.13;;
36373;SDS011;22399;51.346;12.372;2023-06-26T08:06:01;9.32;;;2.97;;
36373;SDS011;22399;51.346;12.372;2023-06-26T08:08:31;4.75;;;2.58;;
36373;SDS011;22399;51.346;12.372;2023-06-26T08:11:00;11.65;;;2.63;;
36373;SDS011;22399;51.346;12.372;2023-06-26T08:13:29;8.13;;;2.38;;
36373;SDS011;22399;51.346;12.372;2023-06-26T08:15:58;6.03;;;2.63;;
36373;SDS011;22399;51.346;12.372;2023-06-26T08:18:26;8.13;;;3.00;;
36373;SDS011;22399;51.346;12.372;2023-06-26T08:20:55;5.05;;;2.80;;
36373;SDS011;22399;51.346;12.372;2023-06-26T08:23:24;6.78;;;2.70;;
36373;SDS011;22399;51.346;12.372;2023-06-26T08:25:54;4.65;;;3.00;;
36373;SDS011;22399;51.346;12.372;2023-06-26T08:28:25;5.93;;;2.25;;
36373;SDS011;22399;51.346;12.372;2023-06-26T08:30:53;4.88;;;2.90;;
36373;SDS011;22399;51.346;12.372;2023-06-26T08:33:22;4.95;;;2.53;;
36373;SDS011;22399;51.346;12.372;2023-06-26T08:35:50;5.88;;;3.05;;
36373;SDS011;22399;51.346;12.372;2023-06-26T08:38:19;6.68;;;2.67;;
36373;SDS011;22399;51.346;12.372;2023-06-26T08:40:48;5.85;;;2.67;;
36373;SDS011;22399;51.346;12.372;2023-06-26T08:43:18;9.75;;;2.88;;
36373;SDS011;22399;51.346;12.372;2023-06-26T08:45:47;4.68;;;2.85;;
36373;SDS011;22399;51.346;12.372;2023-06-26T08:48:17;5.97;;;2.97;;
36373;SDS011;22399;51.346;12.372;2023-06-26T08:50:48;7.60;;;3.10;;
36373;SDS011;22399;51.346;12.372;2023-06-26T08:53:21;7.72;;;2.78;;
36373;SDS011;22399;51.346;12.372;2023-06-26T08:55:57;5.65;;;2.63;;
36373;SDS011;22399;51.346;12.372;2023-06-26T08:58:27;4.05;;;2.50;;
36373;SDS011;22399;51.346;12.372;2023-06-26T09:00:56;5.38;;;2.28;;
36373;SDS011;22399;51.346;12.372;2023-06-26T09:03:26;5.45;;;2.75;;
36373;SDS011;22399;51.346;12.372;2023-06-26T09:05:55;4.18;;;2.30;;
36373;SDS011;22399;51.346;12.372;2023-06-26T09:08:23;5.32;;;2.50;;
36373;SDS011;22399;51.346;12.372;2023-06-26T09:10:52;16.83;;;2.97;;
36373;SDS011;22399;51.346;12.372;2023-06-26T09:13:21;5.50;;;2.55;;
36373;SDS011;22399;51.346;12.372;2023-06-26T09:15:57;7.80;;;2.67;;
36373;SDS011;22399;51.346;12.372;2023-06-26T09:18:26;4.38;;;2.13;;
36373;SDS011;22399;51.346;12.372;2023-06-26T09:20:54;4.22;;;2.47;;
36373;SDS011;22399;51.346;12.372;2023-06-26T09:23:24;4.32;;;2.42;;
36373;SDS011;22399;51.346;12.372;2023-06-26T09:25:53;4.90;;;2.35;;
36373;SDS011;22399;51.346;12.372;2023-06-26T09:28:22;5.40;;;2.50;;
36373;SDS011;22399;51.346;12.372;2023-06-26T09:30:50;5.47;;;2.55;;
36373;SDS011;22399;51.346;12.372;2023-06-26T09:33:21;3.65;;;2.15;;
36373;SDS011;22399;51.346;12.372;2023-06-26T09:35:49;4.43;;;2.53;;
36373;SDS011;22399;51.346;12.372;2023-06-26T09:38:18;4.30;;;2.50;;
36373;SDS011;22399;51.346;12.372;2023-06-26T09:40:48;5.65;;;2.80;;
36373;SDS011;22399;51.346;12.372;2023-06-26T09:43:17;4.93;;;2.50;;
36373;SDS011;22399;51.346;12.372;2023-06-26T09:45:47;4.03;;;2.45;;
36373;SDS011;22399;51.346;12.372;2023-06-26T09:48:15;7.13;;;2.35;;
36373;SDS011;22399;51.346;12.372;2023-06-26T09:50:46;4.68;;;2.50;;
36373;SDS011;22399;51.346;12.372;2023-06-26T09:53:35;3.53;;;2.22;;
36373;SDS011;22399;51.346;12.372;2023-06-26T09:56:07;10.80;;;2.20;;
36373;SDS011;22399;51.346;12.372;2023-06-26T09:58:42;4.07;;;2.28;;
36373;SDS011;22399;51.346;12.372;2023-06-26T10:01:11;5.43;;;2.65;;
36373;SDS011;22399;51.346;12.372;2023-06-26T10:03:40;15.20;;;2.78;;
36373;SDS011;22399;51.346;12.372;2023-06-26T10:06:11;5.50;;;2.85;;
36373;SDS011;22399;51.346;12.372;2023-06-26T10:08:40;4.22;;;2.13;;
36373;SDS011;22399;51.346;12.372;2023-06-26T10:11:11;4.47;;;2.33;;
36373;SDS011;22399;51.346;12.372;2023-06-26T10:13:45;5.32;;;2.70;;
36373;SDS011;22399;51.346;12.372;2023-06-26T10:16:16;4.28;;;2.15;;
36373;SDS011;22399;51.346;12.372;2023-06-26T10:18:50;3.22;;;1.98;;
36373;SDS011;22399;51.346;12.372;2023-06-26T10:21:24;4.07;;;2.40;;
36373;SDS011;22399;51.346;12.372;2023-06-26T10:23:55;7.18;;;2.50;;
36373;SDS011;22399;51.346;12.372;2023-06-26T10:26:24;4.68;;;2.22;;
36373;SDS011;22399;51.346;12.372;2023-06-26T10:28:56;7.05;;;2.72;;
36373;SDS011;22399;51.346;12.372;2023-06-26T10:31:26;7.13;;;2.85;;
36373;SDS011;22399;51.346;12.372;2023-06-26T10:33:57;5.57;;;2.67;;
36373;SDS011;22399;51.346;12.372;2023-06-26T10:36:30;7.32;;;2.30;;
36373;SDS011;22399;51.346;12.372;2023-06-26T10:39:01;11.38;;;2.17;;
36373;SDS011;22399;51.346;12.372;2023-06-26T10:41:36;3.70;;;2.13;;
36373;SDS011;22399;51.346;12.372;2023-06-26T10:44:22;5.03;;;2.28;;
36373;SDS011;22399;51.346;12.372;2023-06-26T10:46:50;2.75;;;1.85;;
36373;SDS011;22399;51.346;12.372;2023-06-26T10:49:20;6.88;;;2.45;;
36373;SDS011;22399;51.346;12.372;2023-06-26T10:51:53;4.75;;;2.13;;
36373;SDS011;22399;51.346;12.372;2023-06-26T10:54:27;6.25;;;2.25;;
36373;SDS011;22399;51.346;12.372;2023-06-26T10:56:56;4.15;;;2.10;;
36373;SDS011;22399;51.346;12.372;2023-06-26T10:59:25;5.88;;;2.78;;
36373;SDS011;22399;51.346;12.372;2023-06-26T11:01:55;4.82;;;2.13;;
36373;SDS011;22399;51.346;12.372;2023-06-26T11:04:36;5.55;;;2.35;;
36373;SDS011;22399;51.346;12.372;2023-06-26T11:07:17;3.70;;;2.08;;
36373;SDS011;22399;51.346;12.372;2023-06-26T11:09:57;3.80;;;2.38;;
36373;SDS011;22399;51.346;12.372;2023-06-26T11:12:36;5.78;;;2.25;;
36373;SDS011;22399;51.346;12.372;2023-06-26T11:15:09;6.07;;;2.78;;
36373;SDS011;22399;51.346;12.372;2023-06-26T11:17:39;4.68;;;2.60;;
36373;SDS011;22399;51.346;12.372;2023-06-26T11:20:09;4.70;;;2.25;;
36373;SDS011;22399;51.346;12.372;2023-06-26T11:22:42;5.78;;;2.53;;
36373;SDS011;22399;51.346;12.372;2023-06-26T11:25:10;4.25;;;2.22;;
36373;SDS011;22399;51.346;12.372;2023-06-26T11:27:39;3.38;;;2.35;;
36373;SDS011;22399;51.346;12.372;2023-06-26T11:30:09;4.95;;;2.55;;
36373;SDS011;22399;51.346;12.372;2023-06-26T11:32:38;3.90;;;2.15;;
36373;SDS011;22399;51.346;12.372;2023-06-26T11:35:07;5.72;;;2.40;;
36373;SDS011;22399;51.346;12.372;2023-06-26T11:37:37;5.20;;;2.63;;
36373;SDS011;22399;51.346;12.372;2023-06-26T11:40:17;4.07;;;2.35;;
36373;SDS011;22399;51.346;12.372;2023-06-26T11:42:46;4.90;;;2.53;;
36373;SDS011;22399;51.346;12.372;2023-06-26T11:45:15;4.18;;;1.98;;
36373;SDS011;22399;51.346;12.372;2023-06-26T11:47:44;9.32;;;2.70;;
36373;SDS011;22399;51.346;12.372;2023-06-26T11:50:16;3.20;;;2.00;;
36373;SDS011;22399;51.346;12.372;2023-06-26T11:52:45;6.10;;;2.40;;
36373;SDS011;22399;51.346;12.372;2023-06-26T11:55:22;3.53;;;1.90;;
36373;SDS011;22399;51.346;12.372;2023-06-26T11:57:53;4.90;;;2.50;;
36373;SDS011;22399;51.346;12.372;2023-06-26T12:00:22;6.32;;;3.10;;
36373;SDS011;22399;51.346;12.372;2023-06-26T12:02:51;4.47;;;2.65;;
36373;SDS011;22399;51.346;12.372;2023-06-26T12:05:21;5.60;;;2.35;;
36373;SDS011;22399;51.346;12.372;2023-06-26T12:07:50;3.85;;;2.70;;
36373;SDS011;22399;51.346;12.372;2023-06-26T12:10:19;4.95;;;2.55;;
36373;SDS011;22399;51.346;12.372;2023-06-26T12:12:49;4.50;;;2.25;;
36373;SDS011;22399;51.346;12.372;2023-06-26T12:15:19;3.95;;;2.17;;
36373;SDS011;22399;51.346;12.372;2023-06-26T12:17:48;4.57;;;2.38;;
36373;SDS011;22399;51.346;12.372;2023-06-26T12:20:19;4.38;;;2.10;;
36373;SDS011;22399;51.346;12.372;2023-06-26T12:22:49;15.73;;;4.60;;
36373;SDS011;22399;51.346;12.372;2023-06-26T12:25:21;3.30;;;1.85;;
36373;SDS011;22399;51.346;12.372;2023-06-26T12:27:52;3.53;;;2.33;;
36373;SDS011;22399;51.346;12.372;2023-06-26T12:30:21;4.70;;;2.42;;
36373;SDS011;22399;51.346;12.372;2023-06-26T12:32:49;9.13;;;2.50;;
36373;SDS011;22399;51.346;12.372;2023-06-26T12:35:17;6.05;;;2.80;;
36373;SDS011;22399;51.346;12.372;2023-06-26T12:37:46;3.75;;;2.00;;
36373;SDS011;22399;51.346;12.372;2023-06-26T12:40:18;4.07;;;2.08;;
36373;SDS011;22399;51.346;12.372;2023-06-26T12:42:49;4.10;;;1.93;;
36373;SDS011;22399;51.346;12.372;2023-06-26T12:45:19;3.67;;;2.05;;
36373;SDS011;22399;51.346;12.372;2023-06-26T12:47:50;11.48;;;2.30;;
36373;SDS011;22399;51.346;12.372;2023-06-26T12:50:19;6.72;;;2.28;;
36373;SDS011;22399;51.346;12.372;2023-06-26T12:52:48;4.57;;;2.00;;
36373;SDS011;22399;51.346;12.372;2023-06-26T12:55:16;6.18;;;2.28;;
36373;SDS011;22399;51.346;12.372;2023-06-26T12:57:45;6.82;;;2.40;;
36373;SDS011;22399;51.346;12.372;2023-06-26T13:00:13;5.28;;;2.00;;
36373;SDS011;22399;51.346;12.372;2023-06-26T13:02:44;7.50;;;2.28;;
36373;SDS011;22399;51.346;12.372;2023-06-26T13:05:12;4.38;;;2.30;;
36373;SDS011;22399;51.346;12.372;2023-06-26T13:07:41;6.93;;;2.47;;
36373;SDS011;22399;51.346;12.372;2023-06-26T13:10:09;4.65;;;1.90;;
36373;SDS011;22399;51.346;12.372;2023-06-26T13:12:38;8.40;;;2.30;;
36373;SDS011;22399;51.346;12.372;2023-06-26T13:15:07;9.68;;;2.10;;
36373;SDS011;22399;51.346;12.372;2023-06-26T13:17:37;10.73;;;2.60;;
36373;SDS011;22399;51.346;12.372;2023-06-26T13:20:07;4.28;;;2.53;;
36373;SDS011;22399;51.346;12.372;2023-06-26T13:22:37;7.05;;;2.50;;
36373;SDS011;22399;51.346;12.372;2023-06-26T13:25:05;4.38;;;2.47;;
36373;SDS011;22399;51.346;12.372;2023-06-26T13:27:35;6.13;;;2.75;;
36373;SDS011;22399;51.346;12.372;2023-06-26T13:30:03;3.92;;;2.30;;
36373;SDS011;22399;51.346;12.372;2023-06-26T13:32:33;3.83;;;2.25;;
36373;SDS011;22399;51.346;12.372;2023-06-26T13:35:01;3.60;;;2.03;;
36373;SDS011;22399;51.346;12.372;2023-06-26T13:37:32;4.95;;;2.35;;
36373;SDS011;22399;51.346;12.372;2023-06-26T13:40:00;7.53;;;2.50;;
36373;SDS011;22399;51.346;12.372;2023-06-26T13:42:29;3.85;;;2.33;;
36373;SDS011;22399;51.346;12.372;2023-06-26T13:44:58;4.25;;;2.33;;
36373;SDS011;22399;51.346;12.372;2023-06-26T13:47:33;6.07;;;2.10;;
36373;SDS011;22399;51.346;12.372;2023-06-26T13:50:04;5.32;;;2.50;;
36373;SDS011;22399;51.346;12.372;2023-06-26T13:52:35;5.60;;;2.58;;
36373;SDS011;22399;51.346;12.372;2023-06-26T13:55:04;5.97;;;2.42;;
36373;SDS011;22399;51.346;12.372;2023-06-26T13:57:33;5.63;;;2.80;;
36373;SDS011;22399;51.346;12.372;2023-06-26T14:00:08;4.65;;;2.58;;
36373;SDS011;22399;51.346;12.372;2023-06-26T14:02:38;5.85;;;2.08;;
36373;SDS011;22399;51.346;12.372;2023-06-26T14:05:07;6.15;;;2.45;;
36373;SDS011;22399;51.346;12.372;2023-06-26T14:07:39;11.35;;;2.90;;
36373;SDS011;22399;51.346;12.372;2023-06-26T14:10:07;22.02;;;3.40;;
36373;SDS011;22399;51.346;12.372;2023-06-26T14:12:36;15.43;;;4.03;;
36373;SDS011;22399;51.346;12.372;2023-06-26T14:15:05;11.40;;;3.53;;
36373;SDS011;22399;51.346;12.372;2023-06-26T14:17:34;9.52;;;3.80;;
36373;SDS011;22399;51.346;12.372;2023-06-26T14:20:03;11.13;;;4.00;;
36373;SDS011;22399;51.346;12.372;2023-06-26T14:22:42;12.38;;;4.35;;
36373;SDS011;22399;51.346;12.372;2023-06-26T14:25:13;7.47;;;3.67;;
36373;SDS011;22399;51.346;12.372;2023-06-26T14:27:43;13.70;;;3.65;;
36373;SDS011;22399;51.346;12.372;2023-06-26T14:30:11;11.45;;;3.90;;
36373;SDS011;22399;51.346;12.372;2023-06-26T14:32:40;16.98;;;4.78;;
36373;SDS011;22399;51.346;12.372;2023-06-26T14:35:09;13.50;;;5.00;;
36373;SDS011;22399;51.346;12.372;2023-06-26T14:37:37;7.60;;;4.25;;
36373;SDS011;22399;51.346;12.372;2023-06-26T14:40:10;15.05;;;4.78;;
36373;SDS011;22399;51.346;12.372;2023-06-26T14:42:39;8.18;;;4.45;;
36373;SDS011;22399;51.346;12.372;2023-06-26T14:45:10;12.85;;;4.60;;
36373;SDS011;22399;51.346;12.372;2023-06-26T14:47:39;18.13;;;4.25;;
36373;SDS011;22399;51.346;12.372;2023-06-26T14:50:08;10.07;;;4.47;;